• Join FlightAware (Why Join?)
  • Login
  • US Flag 
10:27PM EDT


 

Airport Tracker/Info


-or-


 

Live Flight TrackerFlight Track Log ✈ AWE3461 ✈ 09-Apr-2014 ✈ KPVD - KPHL

Flight Track Log - Related Links

Times and Time Zones

All times are in EDT time to prevent confusion due to time zone crossing. See the AWE3461 flight status page for this flight to view local times or setup timezone preferences in your user account.

Time Position Orientation Groundspeed Altitude Reporting Facility
EDT Latitude Longitude Course Direction KTS MPH feet Rate Location/Type
06:15PM 41.7328 -71.4353 344° North 148 170 700  Level Boston Center
06:15PM 41.7589 -71.4450 344° North 160 184 2,200 2,340 Climbing Boston Center
06:16PM 41.7861 -71.4494 353° North 183 211 3,300 2,280 Climbing Boston Center
06:17PM 41.8169 -71.3744 61° Northeast 258 297 5,800 1,740 Climbing Boston Center
06:18PM 41.7706 -71.2961 128° Southeast 293 337 7,000 1,560 Climbing Boston Center
06:19PM 41.6836 -71.2889 176° South 290 334 9,000 1,980 Climbing Boston Center
06:20PM 41.5983 -71.2814 176° South 304 350 11,100 2,220 Climbing Boston Center
06:21PM 41.5044 -71.2733 176° South 333 383 13,500 2,160 Climbing Boston Center
06:22PM 41.4094 -71.2656 176° South 340 391 15,700 2,340 Climbing Boston Center
06:23PM 41.3033 -71.2572 177° South 352 405 18,400 2,400 Climbing Boston Center
06:24PM 41.2036 -71.2514 177° South 353 406 20,500 1,680 Climbing Boston Center
06:25PM 41.1264 -71.3233 215° Southwest 351 404 21,900 480 Climbing Boston Center
06:27PM 41.0200 -71.5319 236° Southwest 344 396 22,000  Climbing Boston Center
06:28PM 40.9631 -71.6344 234° Southwest 344 396 22,000  Level Boston Center
06:29PM 40.9089 -71.7378 235° Southwest 344 396 22,000  Level Boston Center
06:30PM 40.8519 -71.8403 234° Southwest 344 396 22,000  Level Boston Center
06:31PM 40.7961 -71.9433 234° Southwest 344 396 22,000  Level Boston Center
06:33PM 40.6814 -72.1528 234° Southwest 348 400 22,000  Level Boston Center
06:34PM 40.6239 -72.2583 234° Southwest 350 403 22,000  Level Boston Center
06:35PM 40.5544 -72.3828 234° Southwest 351 404 22,000  Level Boston Center
06:37PM 40.4181 -72.6275 234° Southwest 367 422 22,000  Level New York Center
06:38PM 40.3814 -72.6961 235° Southwest 352 405 22,000 -360 Level Boston Center
06:39PM 40.3228 -72.8011 234° Southwest 354 407 21,400 -900 Descending Boston Center
06:40PM 40.2647 -72.9044 234° Southwest 354 407 20,200 -480 Descending Boston Center
06:42PM 40.1275 -73.1436 233° Southwest 362 417 20,000 -120 Descending New York Center
06:43PM 40.0689 -73.2472 234° Southwest 362 417 20,000  Level New York Center
06:44PM 40.0106 -73.3483 233° Southwest 362 417 20,000  Level New York Center
06:45PM 39.9650 -73.4306 234° Southwest 362 417 20,000  Level New York Center
06:46PM 39.8997 -73.5469 234° Southwest 362 417 20,000  Level New York Center
06:47PM 39.8389 -73.6472 232° Southwest 362 417 20,000  Level New York Center
06:48PM 39.7886 -73.7231 229° Southwest 358 412 20,000 -120 Level Washington Center
06:49PM 39.7253 -73.8217 230° Southwest 358 412 19,800 -1,020 Descending Washington Center
06:50PM 39.6622 -73.9175 229° Southwest 358 412 18,000 -1,800 Descending Washington Center
06:52PM 39.5478 -74.1006 229° Southwest 342 394 14,500 -1,380 Descending Washington Center
06:53PM 39.5242 -74.2061 254° West 312 359 14,000 -300 Descending Washington Center
06:54PM 39.5275 -74.3083 272° West 290 334 14,000 -720 Level Washington Center
06:57PM 39.5333 -74.5667 272° West 278 320 11,500 -1,140 Descending Philadelphia TRACON
06:58PM 39.5333 -74.6833 270° West 265 305 10,000 -1,260 Descending Philadelphia TRACON
06:59PM 39.5333 -74.7667 270° West 257 296 9,000 -1,140 Descending Philadelphia TRACON
07:00PM 39.5333 -74.8333 270° West 219 252 7,900 -1,020 Descending Philadelphia TRACON
07:01PM 39.5833 -74.8833 322° Northwest 203 234 7,000 -480 Descending Philadelphia TRACON
07:02PM 39.6333 -74.9333 322° Northwest 187 215 7,000  Level Philadelphia TRACON
07:03PM 39.6667 -74.9667 322° Northwest 184 212 7,000  Level Philadelphia TRACON
07:05PM 39.7667 -74.9667 360° North 209 241 7,000 -120 Level Philadelphia TRACON
07:06PM 39.8000 -74.9167 49° Northeast 205 236 6,700 -480 Descending Philadelphia TRACON
07:07PM 39.8500 -74.8667 38° Northeast 209 241 6,000 -960 Descending Philadelphia TRACON
07:08PM 39.9000 -74.8667 360° North 182 209 4,800 -1,380 Descending Philadelphia TRACON
07:09PM 39.9167 -74.9333 288° West 178 205 3,300 -900 Descending Philadelphia TRACON
07:10PM 39.9167 -74.9833 270° West 180 207 3,000 -300 Descending Philadelphia TRACON
07:11PM 39.9167 -75.0500 270° West 180 207 2,700 -600 Descending Philadelphia TRACON
07:12PM 39.9000 -75.1167 252° West 180 207 1,800 -900 Descending Philadelphia TRACON
07:13PM 39.8833 -75.1667 247° West 137 158 1,000 -780 Descending Philadelphia TRACON
07:14PM 39.8833 -75.2000 270° West 124 143 300 -720 Descending Philadelphia TRACON
07:16PM 39.8667 -75.2333 254° West  Level FlightAware Approximate
07:23PM 39.8688 -75.2239 254° West  Level FlightAware Approximate